createdAt,value
2023-01-28T00:02:03.128Z,79.13
2023-01-28T00:04:32.161Z,79.05
2023-01-28T00:06:58.811Z,80.01
2023-01-28T00:09:25.460Z,79.56
2023-01-28T00:11:52.046Z,79.51
2023-01-28T00:14:18.633Z,79.54
2023-01-28T00:16:45.402Z,78.85
2023-01-28T00:19:11.987Z,78.87
2023-01-28T00:21:38.610Z,78.70
2023-01-28T00:24:07.072Z,78.79
2023-01-28T00:26:33.726Z,78.69
2023-01-28T00:29:02.397Z,78.97
2023-01-28T00:31:31.365Z,79.41
2023-01-28T00:34:00.505Z,78.27
2023-01-28T00:36:27.633Z,78.99
2023-01-28T00:38:56.817Z,78.51
2023-01-28T00:41:25.993Z,78.90
2023-01-28T00:43:58.074Z,78.55
2023-01-28T00:46:28.444Z,79.22
2023-01-28T00:48:55.565Z,78.91
2023-01-28T00:51:24.657Z,78.41
2023-01-28T00:53:51.279Z,78.88
2023-01-28T00:56:19.616Z,78.93
2023-01-28T00:58:46.697Z,77.92
2023-01-28T01:01:17.136Z,78.37
2023-01-28T01:03:44.197Z,78.63
2023-01-28T01:06:14.893Z,78.73
2023-01-28T01:08:43.044Z,78.91
2023-01-28T01:11:12.023Z,78.32
2023-01-28T01:13:41.438Z,78.46
2023-01-28T01:16:11.349Z,78.48
2023-01-28T01:18:42.041Z,78.39
2023-01-28T01:21:11.429Z,78.00
2023-01-28T01:23:38.028Z,78.25
2023-01-28T01:26:06.174Z,77.92
2023-01-28T01:28:33.417Z,77.74
2023-01-28T01:31:02.552Z,77.84
2023-01-28T01:33:37.550Z,77.69
2023-01-28T01:36:06.329Z,77.65
2023-01-28T01:38:32.910Z,78.01
2023-01-28T01:41:00.819Z,77.58
2023-01-28T01:43:50.878Z,77.73
2023-01-28T01:46:23.094Z,77.53
2023-01-28T01:48:50.076Z,77.72
2023-01-28T01:51:21.907Z,77.29
2023-01-28T01:53:52.218Z,78.23
2023-01-28T01:56:23.081Z,77.72
2023-01-28T01:58:53.675Z,77.50
2023-01-28T02:01:25.572Z,77.02
2023-01-28T02:04:08.896Z,77.81
2023-01-28T02:06:37.878Z,77.63
2023-01-28T02:09:23.846Z,78.10
2023-01-28T02:11:56.481Z,78.19
2023-01-28T02:14:31.498Z,78.00
2023-01-28T02:17:01.599Z,77.96
2023-01-28T02:19:37.226Z,78.63
2023-01-28T02:22:40.334Z,78.60
2023-01-28T02:25:34.867Z,78.33
2023-01-28T02:28:15.014Z,77.95
2023-01-28T02:30:54.727Z,78.49
2023-01-28T02:33:59.582Z,78.08
2023-01-28T02:36:26.090Z,78.36
2023-01-28T02:38:54.701Z,78.14
2023-01-28T02:41:29.078Z,78.80
2023-01-28T02:43:55.657Z,79.01
2023-01-28T02:46:43.920Z,79.55
2023-01-28T02:49:16.070Z,79.24
2023-01-28T02:52:09.393Z,78.75
2023-01-28T02:54:38.888Z,78.74
2023-01-28T02:57:05.433Z,78.81
2023-01-28T02:59:41.756Z,78.38
2023-01-28T03:02:42.238Z,78.99
2023-01-28T03:05:22.514Z,78.43
2023-01-28T03:07:50.322Z,79.31
2023-01-28T03:10:20.799Z,78.87
2023-01-28T03:13:10.693Z,78.63
2023-01-28T03:16:04.837Z,78.38
2023-01-28T03:19:06.247Z,78.78
2023-01-28T03:21:55.567Z,78.59
2023-01-28T03:24:43.711Z,79.24
2023-01-28T03:27:35.141Z,79.15
2023-01-28T03:30:26.401Z,79.57
2023-01-28T03:33:15.146Z,79.46
2023-01-28T03:36:00.728Z,79.57
2023-01-28T03:38:34.046Z,79.13
2023-01-28T03:41:03.838Z,79.72
2023-01-28T03:43:31.494Z,79.64
2023-01-28T03:45:58.509Z,78.81
2023-01-28T03:48:27.440Z,80.00
2023-01-28T03:50:55.955Z,78.61
2023-01-28T03:53:25.027Z,78.80
2023-01-28T03:55:53.231Z,78.58
2023-01-28T03:58:20.964Z,78.84
2023-01-28T04:00:48.022Z,78.76
2023-01-28T04:03:17.058Z,78.23
2023-01-28T04:05:58.919Z,79.20
2023-01-28T04:08:25.778Z,78.38
2023-01-28T04:10:54.616Z,78.64
2023-01-28T04:13:26.546Z,79.31
2023-01-28T04:15:53.187Z,78.63
2023-01-28T04:18:20.950Z,78.71
2023-01-28T04:20:50.054Z,78.94
2023-01-28T04:23:16.610Z,79.01
2023-01-28T04:25:43.191Z,78.80
2023-01-28T04:28:12.038Z,78.64
2023-01-28T04:30:38.624Z,78.94
2023-01-28T04:33:07.406Z,78.82
2023-01-28T04:35:33.992Z,79.02
2023-01-28T04:38:03.139Z,79.05
2023-01-28T04:40:32.313Z,78.21
2023-01-28T04:42:59.049Z,78.40
2023-01-28T04:45:25.645Z,79.03
2023-01-28T04:47:52.219Z,78.64
2023-01-28T04:50:18.865Z,79.06
2023-01-28T04:52:45.451Z,78.61
2023-01-28T04:55:12.186Z,79.39
2023-01-28T04:57:38.768Z,78.85
2023-01-28T05:00:06.333Z,78.71
2023-01-28T05:02:33.209Z,79.16
2023-01-28T05:05:01.589Z,79.13
2023-01-28T05:07:30.437Z,79.16
2023-01-28T05:09:59.458Z,79.08
2023-01-28T05:12:26.327Z,78.64
2023-01-28T05:14:52.888Z,78.84
2023-01-28T05:17:19.760Z,78.45
2023-01-28T05:19:46.421Z,78.57
2023-01-28T05:22:12.961Z,77.87
2023-01-28T05:24:39.501Z,78.11
2023-01-28T05:27:07.521Z,78.42
2023-01-28T05:29:34.149Z,78.20
2023-01-28T05:32:00.689Z,78.05
2023-01-28T05:34:27.249Z,77.77
2023-01-28T05:36:53.883Z,77.61
2023-01-28T05:39:20.444Z,78.29
2023-01-28T05:41:49.526Z,78.08
2023-01-28T05:44:16.079Z,77.79
2023-01-28T05:46:46.691Z,77.53
2023-01-28T05:49:13.672Z,77.15
2023-01-28T05:51:41.203Z,77.37
2023-01-28T05:54:10.480Z,77.39
2023-01-28T05:56:37.162Z,77.33
2023-01-28T05:59:05.537Z,76.88
2023-01-28T06:01:34.880Z,76.61
2023-01-28T06:04:01.433Z,77.08
2023-01-28T06:06:28.062Z,76.53
2023-01-28T06:08:54.613Z,76.80
2023-01-28T06:11:23.943Z,76.78
2023-01-28T06:13:53.104Z,76.74
2023-01-28T06:16:19.966Z,76.56
2023-01-28T06:18:46.528Z,76.74
2023-01-28T06:21:16.246Z,76.92
2023-01-28T06:23:42.841Z,76.60
2023-01-28T06:26:09.383Z,76.67
2023-01-28T06:28:36.082Z,76.54
2023-01-28T06:31:02.701Z,76.30
2023-01-28T06:33:29.573Z,76.49
2023-01-28T06:35:56.338Z,75.78
2023-01-28T06:38:25.964Z,76.29
2023-01-28T06:40:55.916Z,76.46
2023-01-28T06:43:27.994Z,76.00
2023-01-28T06:45:55.353Z,76.87
2023-01-28T06:48:22.426Z,76.54
2023-01-28T06:50:49.603Z,76.45
2023-01-28T06:53:17.033Z,76.55
2023-01-28T06:55:44.093Z,76.51
2023-01-28T06:58:10.920Z,76.57
2023-01-28T07:00:37.898Z,76.33
2023-01-28T07:03:05.338Z,76.33
2023-01-28T07:05:32.201Z,76.55
2023-01-28T07:07:58.845Z,76.24
2023-01-28T07:10:25.568Z,76.78
2023-01-28T07:12:52.308Z,76.00
2023-01-28T07:15:19.069Z,76.15
2023-01-28T07:17:45.992Z,76.19
2023-01-28T07:20:15.636Z,76.72
2023-01-28T07:22:45.699Z,76.09
2023-01-28T07:25:16.033Z,75.48
2023-01-28T07:27:53.588Z,75.91
2023-01-28T07:30:21.464Z,75.67
2023-01-28T07:32:53.596Z,76.50
2023-01-28T07:35:20.141Z,76.21
2023-01-28T07:37:57.688Z,76.13
2023-01-28T07:40:30.623Z,75.91
2023-01-28T07:42:57.691Z,75.55
2023-01-28T07:45:25.794Z,75.94
2023-01-28T07:48:00.349Z,75.44
2023-01-28T07:50:29.283Z,75.06
2023-01-28T07:53:01.777Z,75.12
2023-01-28T07:55:31.170Z,75.72
2023-01-28T07:58:03.443Z,75.01
2023-01-28T08:00:32.493Z,75.49
2023-01-28T08:03:04.095Z,75.49
2023-01-28T08:05:41.584Z,75.54
2023-01-28T08:08:09.906Z,74.53
2023-01-28T08:10:40.092Z,74.59
2023-01-28T08:13:07.519Z,75.17
2023-01-28T08:15:35.378Z,74.95
2023-01-28T08:18:05.530Z,74.94
2023-01-28T08:20:36.919Z,74.35
2023-01-28T08:23:14.104Z,74.20
2023-01-28T08:25:41.448Z,74.09
2023-01-28T08:28:09.404Z,74.51
2023-01-28T08:30:38.229Z,74.59
2023-01-28T08:33:06.323Z,73.95
2023-01-28T08:35:36.339Z,74.76
2023-01-28T08:38:04.054Z,74.33
2023-01-28T08:40:31.461Z,74.38
2023-01-28T08:43:01.007Z,74.06
2023-01-28T08:45:30.637Z,73.92
2023-01-28T08:48:05.604Z,74.27
2023-01-28T08:50:37.457Z,74.13
2023-01-28T08:53:07.263Z,74.13
2023-01-28T08:55:34.551Z,73.89
2023-01-28T08:58:11.356Z,73.47
2023-01-28T09:00:38.545Z,74.49
2023-01-28T09:03:06.381Z,74.12
2023-01-28T09:05:35.912Z,74.35
2023-01-28T09:08:08.443Z,74.01
2023-01-28T09:10:37.593Z,74.00
2023-01-28T09:13:12.959Z,74.31
2023-01-28T09:15:42.486Z,74.28
2023-01-28T09:18:09.094Z,74.24
2023-01-28T09:20:35.857Z,73.70
2023-01-28T09:23:02.568Z,73.52
2023-01-28T09:25:29.738Z,72.95
2023-01-28T09:27:57.244Z,72.71
2023-01-28T09:30:23.982Z,73.63
2023-01-28T09:32:55.499Z,73.17
2023-01-28T09:35:22.865Z,73.07
2023-01-28T09:37:49.759Z,73.08
2023-01-28T09:40:21.627Z,73.25
2023-01-28T09:42:59.548Z,72.81
2023-01-28T09:45:41.056Z,73.23
2023-01-28T09:48:21.696Z,73.06
2023-01-28T09:50:54.322Z,72.78
2023-01-28T09:53:43.773Z,72.82
2023-01-28T09:56:16.053Z,72.82
2023-01-28T09:58:43.393Z,73.40
2023-01-28T10:01:27.669Z,72.41
2023-01-28T10:04:13.662Z,72.79
2023-01-28T10:07:00.184Z,72.73
2023-01-28T10:09:48.711Z,72.93
2023-01-28T10:12:37.027Z,72.77
2023-01-28T10:15:25.401Z,72.77
2023-01-28T10:18:07.200Z,72.59
2023-01-28T10:20:49.693Z,72.80
2023-01-28T10:23:22.679Z,72.88
2023-01-28T10:25:49.506Z,72.55
2023-01-28T10:28:24.167Z,72.82
2023-01-28T10:30:51.749Z,72.71
2023-01-28T10:33:35.845Z,72.89
2023-01-28T10:36:03.175Z,72.46
2023-01-28T10:38:33.755Z,72.49
2023-01-28T10:41:07.284Z,71.98
2023-01-28T10:43:40.727Z,71.99
2023-01-28T10:46:30.088Z,71.54
2023-01-28T10:49:13.332Z,71.76
2023-01-28T10:51:42.148Z,71.23
2023-01-28T10:54:24.357Z,70.93
2023-01-28T10:56:55.794Z,71.43
2023-01-28T10:59:30.042Z,71.28
2023-01-28T11:01:59.707Z,70.78
2023-01-28T11:04:32.098Z,70.84
2023-01-28T11:07:18.659Z,71.46
2023-01-28T11:09:48.722Z,70.90
2023-01-28T11:12:27.589Z,70.44
2023-01-28T11:14:58.629Z,70.45
2023-01-28T11:17:29.327Z,70.38
2023-01-28T11:20:01.143Z,70.58
2023-01-28T11:22:33.512Z,69.91
2023-01-28T11:25:02.924Z,70.55
2023-01-28T11:27:31.953Z,71.19
2023-01-28T11:30:04.751Z,71.18
2023-01-28T11:32:31.704Z,71.22
2023-01-28T11:35:01.293Z,71.11
2023-01-28T11:37:29.393Z,71.04
2023-01-28T11:40:23.191Z,71.12
2023-01-28T11:43:00.452Z,71.15
2023-01-28T11:45:53.453Z,70.34
2023-01-28T11:48:27.026Z,70.51
2023-01-28T11:51:04.718Z,70.63
2023-01-28T11:54:16.469Z,70.12
2023-01-28T11:57:01.693Z,70.05
2023-01-28T11:59:34.468Z,70.14
2023-01-28T12:02:35.081Z,70.04
2023-01-28T12:05:33.897Z,69.47
2023-01-28T12:08:25.589Z,69.25
2023-01-28T12:11:46.769Z,69.46
2023-01-28T12:14:22.380Z,69.27
2023-01-28T12:16:59.412Z,68.92
2023-01-28T12:19:42.191Z,68.72
2023-01-28T12:22:34.703Z,68.91
2023-01-28T12:25:01.283Z,68.76
2023-01-28T12:27:30.806Z,68.50
2023-01-28T12:30:20.045Z,68.08
2023-01-28T12:32:52.899Z,67.56
2023-01-28T12:35:33.103Z,67.88
2023-01-28T12:38:03.289Z,67.16
2023-01-28T12:40:48.724Z,67.61
2023-01-28T12:43:23.472Z,67.37
2023-01-28T12:46:08.930Z,67.60
2023-01-28T12:49:10.375Z,67.86
2023-01-28T12:51:36.944Z,67.49
2023-01-28T12:54:12.184Z,67.33
2023-01-28T12:56:45.375Z,67.54
2023-01-28T12:59:30.331Z,67.44
2023-01-28T13:02:12.246Z,67.13
2023-01-28T13:05:11.485Z,67.06
2023-01-28T13:07:56.582Z,66.92
2023-01-28T13:10:35.432Z,66.80
2023-01-28T13:13:04.313Z,67.00
2023-01-28T13:15:31.829Z,67.60
2023-01-28T13:18:04.740Z,67.03
2023-01-28T13:20:54.148Z,65.67
2023-01-28T13:23:26.288Z,66.77
2023-01-28T13:25:55.115Z,66.96
2023-01-28T13:28:33.037Z,67.73
2023-01-28T13:31:08.631Z,67.74
2023-01-28T13:33:39.169Z,68.18
2023-01-28T13:36:35.021Z,67.69
2023-01-28T13:39:15.956Z,64.63
2023-01-28T13:41:54.914Z,63.48
2023-01-28T13:44:34.973Z,65.17
2023-01-28T13:47:07.656Z,65.89
2023-01-28T13:49:39.002Z,64.27
2023-01-28T13:52:24.592Z,64.21
2023-01-28T13:54:54.783Z,65.55
2023-01-28T13:58:01.800Z,63.54
2023-01-28T14:01:05.912Z,65.07
2023-01-28T14:04:03.562Z,63.28
2023-01-28T14:06:56.957Z,63.35
2023-01-28T14:09:31.645Z,61.23
2023-01-28T14:12:23.191Z,63.77
2023-01-28T14:14:58.778Z,64.34
2023-01-28T14:17:47.612Z,62.23
2023-01-28T14:20:31.178Z,64.19
2023-01-28T14:23:14.367Z,65.03
2023-01-28T14:25:52.026Z,65.32
2023-01-28T14:28:33.542Z,65.84
2023-01-28T14:31:09.258Z,66.40
2023-01-28T14:33:37.158Z,66.54
2023-01-28T14:36:06.986Z,67.03
2023-01-28T14:38:44.915Z,67.15
2023-01-28T14:41:29.387Z,67.13
2023-01-28T14:43:57.115Z,66.02
2023-01-28T14:47:06.032Z,66.61
2023-01-28T14:49:55.788Z,67.10
2023-01-28T14:52:42.326Z,67.54
2023-01-28T14:55:40.655Z,67.63
2023-01-28T14:58:17.564Z,67.64
2023-01-28T15:00:55.160Z,68.27
2023-01-28T15:03:25.401Z,67.75
2023-01-28T15:06:14.323Z,68.76
2023-01-28T15:08:43.205Z,68.55
2023-01-28T15:11:17.832Z,66.39
2023-01-28T15:13:50.913Z,67.99
2023-01-28T15:16:29.088Z,67.79
2023-01-28T15:18:57.435Z,68.35
2023-01-28T15:21:26.843Z,68.29
2023-01-28T15:23:59.952Z,68.76
2023-01-28T15:26:31.215Z,68.95
2023-01-28T15:29:00.417Z,66.97
2023-01-28T15:31:32.824Z,68.58
2023-01-28T15:34:11.152Z,69.04
2023-01-28T15:36:37.882Z,69.51
2023-01-28T15:39:13.859Z,67.97
2023-01-28T15:41:47.462Z,68.84
2023-01-28T15:44:35.104Z,69.07
2023-01-28T15:47:07.390Z,69.54
2023-01-28T15:49:43.351Z,69.94
2023-01-28T15:52:10.600Z,69.46
2023-01-28T15:54:40.693Z,69.95
2023-01-28T15:57:20.736Z,70.08
2023-01-28T15:59:51.202Z,70.48
2023-01-28T16:02:22.269Z,70.40
2023-01-28T16:05:03.740Z,71.15
2023-01-28T16:07:42.682Z,71.42
2023-01-28T16:10:21.547Z,71.50
2023-01-28T16:12:53.091Z,72.19
2023-01-28T16:15:23.128Z,72.07
2023-01-28T16:17:55.095Z,71.79
2023-01-28T16:20:26.377Z,72.19
2023-01-28T16:23:00.065Z,72.74
2023-01-28T16:25:29.639Z,72.33
2023-01-28T16:28:00.929Z,72.13
2023-01-28T16:30:31.178Z,72.61
2023-01-28T16:32:58.309Z,73.16
2023-01-28T16:35:47.394Z,72.83
2023-01-28T16:38:17.749Z,72.86
2023-01-28T16:40:48.345Z,73.13
2023-01-28T16:43:16.475Z,73.00
2023-01-28T16:45:43.709Z,73.56
2023-01-28T16:48:13.385Z,73.62
2023-01-28T16:50:42.035Z,73.13
2023-01-28T16:53:20.240Z,73.85
2023-01-28T16:55:49.516Z,73.61
2023-01-28T16:58:20.075Z,73.54
2023-01-28T17:00:47.178Z,72.96
2023-01-28T17:03:13.919Z,73.38
2023-01-28T17:05:42.783Z,73.11
2023-01-28T17:08:09.575Z,73.19
2023-01-28T17:10:36.340Z,72.86
2023-01-28T17:13:03.132Z,73.04
2023-01-28T17:15:34.197Z,72.92
2023-01-28T17:18:00.945Z,73.49
2023-01-28T17:20:27.711Z,73.53
2023-01-28T17:22:54.305Z,73.24
2023-01-28T17:25:20.974Z,73.27
2023-01-28T17:27:49.443Z,73.63
2023-01-28T17:30:19.618Z,73.59
2023-01-28T17:32:46.211Z,73.79
2023-01-28T17:35:12.934Z,73.60
2023-01-28T17:37:39.554Z,73.57
2023-01-28T17:40:06.847Z,73.16
2023-01-28T17:42:33.383Z,73.00
2023-01-28T17:45:03.223Z,73.17
2023-01-28T17:47:33.090Z,73.58
2023-01-28T17:49:59.803Z,73.25
2023-01-28T17:52:26.780Z,72.82
2023-01-28T17:54:53.452Z,73.37
2023-01-28T17:57:20.523Z,72.66
2023-01-28T17:59:49.684Z,73.90
2023-01-28T18:02:16.849Z,73.24
2023-01-28T18:04:43.671Z,73.71
2023-01-28T18:07:13.803Z,73.64
2023-01-28T18:09:42.229Z,73.26
2023-01-28T18:12:11.014Z,74.21
2023-01-28T18:14:38.648Z,73.59
2023-01-28T18:17:08.972Z,74.58
2023-01-28T18:19:35.640Z,74.85
2023-01-28T18:22:02.231Z,74.60
2023-01-28T18:24:30.416Z,74.22
2023-01-28T18:27:03.301Z,74.78
2023-01-28T18:29:31.465Z,74.75
2023-01-28T18:31:59.675Z,75.31
2023-01-28T18:34:31.724Z,75.43
2023-01-28T18:37:03.506Z,75.19
2023-01-28T18:39:31.119Z,75.53
2023-01-28T18:41:59.177Z,75.16
2023-01-28T18:44:28.381Z,75.28
2023-01-28T18:46:54.975Z,75.17
2023-01-28T18:49:22.005Z,75.13
2023-01-28T18:51:50.863Z,74.77
2023-01-28T18:54:17.657Z,75.42
2023-01-28T18:56:44.248Z,75.15
2023-01-28T18:59:13.022Z,75.15
2023-01-28T19:01:42.834Z,74.94
2023-01-28T19:04:10.518Z,75.00
2023-01-28T19:06:37.299Z,74.49
2023-01-28T19:09:06.654Z,74.42
2023-01-28T19:11:38.507Z,75.00
2023-01-28T19:14:05.191Z,75.04
2023-01-28T19:16:32.048Z,74.54
2023-01-28T19:19:00.584Z,74.95
2023-01-28T19:21:29.194Z,75.14
2023-01-28T19:23:57.748Z,74.35
2023-01-28T19:26:29.847Z,74.36
2023-01-28T19:28:57.061Z,74.84
2023-01-28T19:31:24.791Z,74.89
2023-01-28T19:34:01.339Z,75.10
2023-01-28T19:36:30.776Z,75.12
2023-01-28T19:39:01.270Z,74.95
2023-01-28T19:41:28.937Z,74.87
2023-01-28T19:43:58.971Z,74.51
2023-01-28T19:46:26.120Z,74.88
2023-01-28T19:48:53.446Z,74.84
2023-01-28T19:51:20.591Z,74.91
2023-01-28T19:53:52.946Z,74.86
2023-01-28T19:56:21.397Z,74.93
2023-01-28T19:58:48.236Z,75.08
2023-01-28T20:01:20.561Z,74.78
2023-01-28T20:03:52.713Z,74.59
2023-01-28T20:06:19.538Z,74.74
2023-01-28T20:08:52.102Z,74.81
2023-01-28T20:11:18.858Z,75.23
2023-01-28T20:13:51.572Z,75.23
2023-01-28T20:16:26.816Z,74.78
2023-01-28T20:19:01.172Z,75.40
2023-01-28T20:21:29.817Z,75.32
2023-01-28T20:23:58.352Z,74.48
2023-01-28T20:26:29.542Z,75.56
2023-01-28T20:29:04.523Z,75.18
2023-01-28T20:31:32.762Z,74.54
2023-01-28T20:34:00.245Z,74.74
2023-01-28T20:36:27.352Z,74.50
2023-01-28T20:38:53.932Z,74.74
2023-01-28T20:41:23.676Z,75.10
2023-01-28T20:43:54.616Z,74.62
2023-01-28T20:46:27.612Z,74.90
2023-01-28T20:48:58.162Z,75.15
2023-01-28T20:51:27.286Z,74.56
2023-01-28T20:53:54.881Z,74.91
2023-01-28T20:56:25.537Z,75.04
2023-01-28T20:58:57.249Z,75.32
2023-01-28T21:01:29.927Z,75.29
2023-01-28T21:03:56.826Z,74.67
2023-01-28T21:06:29.219Z,75.89
2023-01-28T21:08:57.103Z,74.64
2023-01-28T21:11:25.574Z,74.85
2023-01-28T21:13:55.647Z,75.01
2023-01-28T21:16:23.320Z,74.89
2023-01-28T21:18:50.450Z,74.87
2023-01-28T21:21:22.603Z,74.50
2023-01-28T21:23:49.799Z,74.48
2023-01-28T21:26:17.280Z,74.93
2023-01-28T21:28:45.037Z,74.61
2023-01-28T21:31:18.124Z,75.17
2023-01-28T21:33:49.576Z,74.38
2023-01-28T21:36:17.683Z,74.63
2023-01-28T21:38:45.366Z,75.03
2023-01-28T21:41:12.081Z,75.18
2023-01-28T21:43:40.890Z,74.99
2023-01-28T21:46:09.980Z,74.50
2023-01-28T21:48:36.612Z,74.35
2023-01-28T21:51:26.626Z,74.95
2023-01-28T21:53:53.449Z,74.91
2023-01-28T21:56:20.225Z,74.79
2023-01-28T21:59:05.309Z,74.81
2023-01-28T22:01:32.313Z,75.08
2023-01-28T22:03:59.097Z,74.85
2023-01-28T22:06:25.739Z,75.24
2023-01-28T22:08:54.997Z,75.75
2023-01-28T22:11:21.622Z,74.89
2023-01-28T22:13:49.012Z,75.39
2023-01-28T22:16:19.012Z,75.15
2023-01-28T22:18:46.767Z,75.48
2023-01-28T22:21:14.581Z,75.90
2023-01-28T22:23:41.254Z,75.43
2023-01-28T22:26:10.117Z,75.99
2023-01-28T22:28:37.902Z,75.80
2023-01-28T22:31:09.735Z,75.37
2023-01-28T22:33:37.269Z,75.36
2023-01-28T22:36:13.830Z,75.21
2023-01-28T22:38:42.279Z,75.83
2023-01-28T22:41:19.184Z,75.84
2023-01-28T22:43:48.901Z,75.80
2023-01-28T22:46:16.398Z,75.78
2023-01-28T22:48:46.049Z,75.82
2023-01-28T22:51:21.992Z,75.59
2023-01-28T22:53:49.960Z,76.54
2023-01-28T22:56:18.620Z,75.98
2023-01-28T22:58:45.914Z,76.33
2023-01-28T23:01:15.541Z,76.32
2023-01-28T23:03:49.734Z,76.71
2023-01-28T23:06:18.807Z,77.02
2023-01-28T23:08:46.290Z,76.70
2023-01-28T23:11:25.520Z,76.83
2023-01-28T23:14:33.148Z,77.40
2023-01-28T23:17:18.420Z,77.01
2023-01-28T23:20:03.380Z,77.40
2023-01-28T23:22:52.355Z,77.18
2023-01-28T23:25:20.067Z,77.13
2023-01-28T23:27:46.728Z,77.45
2023-01-28T23:30:17.232Z,77.66
2023-01-28T23:32:49.604Z,77.71
2023-01-28T23:35:17.313Z,77.55
2023-01-28T23:37:43.838Z,77.79
2023-01-28T23:40:15.027Z,77.18
2023-01-28T23:42:44.769Z,77.17
2023-01-28T23:45:11.711Z,77.56
2023-01-28T23:47:38.342Z,77.36
2023-01-28T23:50:07.381Z,77.49
2023-01-28T23:52:36.472Z,77.52
2023-01-28T23:55:03.310Z,77.17
2023-01-28T23:57:32.116Z,77.22
2023-01-28T23:59:58.675Z,77.33
